Terminal Aerodrome Forecast
Issued by NWS Newport/Morehead City, NC

Home | Current Version | Previous Version | Graphics & Text | Print | Product List | Glossary On
Versions: 1 2 3 4 5 6 7 8 9 10 11
000
FTUS42 KMHX 171740
TAFEWN
TAF
KEWN 171740Z 1718/1818 05009KT P6SM BKN050 OVC150
     FM172200 03011KT P6SM VCSH SCT006 OVC025
     FM180000 02011G20KT 5SM -RASN SCT005 OVC010
     FM180200 36011G21KT 2SM -SN OVC005
     FM180500 34011G23KT P6SM BKN015
     FM180900 33011G23KT P6SM SCT040=

USA.gov is the U.S. government's official web portal to all federal, state and local government web resources and services.